sensor_id;sensor_type;location;lat;lon;timestamp;P1;durP1;ratioP1;P2;durP2;ratioP2
44000;SDS011;29660;42.892;24.710;2023-05-14T00:00:47;11.32;;;7.05;;
44000;SDS011;29660;42.892;24.710;2023-05-14T00:06:09;8.80;;;6.65;;
44000;SDS011;29660;42.892;24.710;2023-05-14T00:11:31;10.27;;;5.60;;
44000;SDS011;29660;42.892;24.710;2023-05-14T00:16:53;8.50;;;6.03;;
44000;SDS011;29660;42.892;24.710;2023-05-14T00:22:16;9.18;;;7.30;;
44000;SDS011;29660;42.892;24.710;2023-05-14T00:27:38;10.13;;;6.32;;
44000;SDS011;29660;42.892;24.710;2023-05-14T00:33:00;8.38;;;5.63;;
44000;SDS011;29660;42.892;24.710;2023-05-14T00:38:22;7.68;;;5.28;;
44000;SDS011;29660;42.892;24.710;2023-05-14T00:43:48;9.13;;;5.60;;
44000;SDS011;29660;42.892;24.710;2023-05-14T00:49:10;8.73;;;5.90;;
44000;SDS011;29660;42.892;24.710;2023-05-14T00:54:32;8.23;;;5.32;;
44000;SDS011;29660;42.892;24.710;2023-05-14T00:59:55;7.20;;;5.38;;
44000;SDS011;29660;42.892;24.710;2023-05-14T01:05:18;6.22;;;5.50;;
44000;SDS011;29660;42.892;24.710;2023-05-14T01:10:50;8.80;;;5.53;;
44000;SDS011;29660;42.892;24.710;2023-05-14T01:16:17;11.48;;;5.65;;
44000;SDS011;29660;42.892;24.710;2023-05-14T01:21:43;9.73;;;6.03;;
44000;SDS011;29660;42.892;24.710;2023-05-14T01:27:09;8.80;;;7.30;;
44000;SDS011;29660;42.892;24.710;2023-05-14T01:32:38;10.45;;;6.85;;
44000;SDS011;29660;42.892;24.710;2023-05-14T01:38:03;8.38;;;6.35;;
44000;SDS011;29660;42.892;24.710;2023-05-14T01:43:30;7.75;;;6.30;;
44000;SDS011;29660;42.892;24.710;2023-05-14T01:48:53;10.10;;;6.70;;
44000;SDS011;29660;42.892;24.710;2023-05-14T01:54:15;9.10;;;6.20;;
44000;SDS011;29660;42.892;24.710;2023-05-14T01:59:37;11.50;;;6.68;;
44000;SDS011;29660;42.892;24.710;2023-05-14T02:04:59;9.20;;;6.20;;
44000;SDS011;29660;42.892;24.710;2023-05-14T02:10:21;7.28;;;6.30;;
44000;SDS011;29660;42.892;24.710;2023-05-14T02:15:43;11.38;;;8.00;;
44000;SDS011;29660;42.892;24.710;2023-05-14T02:21:06;7.90;;;6.50;;
44000;SDS011;29660;42.892;24.710;2023-05-14T02:26:28;9.85;;;6.43;;
44000;SDS011;29660;42.892;24.710;2023-05-14T02:31:50;7.78;;;6.35;;
44000;SDS011;29660;42.892;24.710;2023-05-14T02:37:12;7.68;;;6.97;;
44000;SDS011;29660;42.892;24.710;2023-05-14T02:42:34;9.52;;;7.18;;
44000;SDS011;29660;42.892;24.710;2023-05-14T02:47:57;8.68;;;7.03;;
44000;SDS011;29660;42.892;24.710;2023-05-14T02:53:19;8.20;;;7.00;;
44000;SDS011;29660;42.892;24.710;2023-05-14T02:58:41;11.93;;;7.32;;
44000;SDS011;29660;42.892;24.710;2023-05-14T03:04:03;10.57;;;6.20;;
44000;SDS011;29660;42.892;24.710;2023-05-14T03:09:25;6.35;;;5.65;;
44000;SDS011;29660;42.892;24.710;2023-05-14T03:14:47;12.23;;;8.90;;
44000;SDS011;29660;42.892;24.710;2023-05-14T03:20:10;10.05;;;6.80;;
44000;SDS011;29660;42.892;24.710;2023-05-14T03:25:33;9.63;;;5.47;;
44000;SDS011;29660;42.892;24.710;2023-05-14T03:30:55;9.13;;;5.32;;
44000;SDS011;29660;42.892;24.710;2023-05-14T03:36:17;11.63;;;6.72;;
44000;SDS011;29660;42.892;24.710;2023-05-14T03:41:41;10.35;;;7.72;;
44000;SDS011;29660;42.892;24.710;2023-05-14T03:47:03;11.02;;;7.32;;
44000;SDS011;29660;42.892;24.710;2023-05-14T03:52:26;10.48;;;7.03;;
44000;SDS011;29660;42.892;24.710;2023-05-14T03:57:48;7.22;;;5.88;;
44000;SDS011;29660;42.892;24.710;2023-05-14T04:03:10;16.92;;;7.60;;
44000;SDS011;29660;42.892;24.710;2023-05-14T04:08:32;10.85;;;7.13;;
44000;SDS011;29660;42.892;24.710;2023-05-14T04:13:55;11.70;;;5.80;;
44000;SDS011;29660;42.892;24.710;2023-05-14T04:19:17;7.78;;;5.57;;
44000;SDS011;29660;42.892;24.710;2023-05-14T04:24:39;11.30;;;8.35;;
44000;SDS011;29660;42.892;24.710;2023-05-14T04:30:02;9.50;;;7.95;;
44000;SDS011;29660;42.892;24.710;2023-05-14T04:35:24;12.25;;;7.10;;
44000;SDS011;29660;42.892;24.710;2023-05-14T04:40:46;11.65;;;8.68;;
44000;SDS011;29660;42.892;24.710;2023-05-14T04:46:08;15.30;;;8.68;;
44000;SDS011;29660;42.892;24.710;2023-05-14T04:51:30;7.93;;;6.60;;
44000;SDS011;29660;42.892;24.710;2023-05-14T04:56:53;10.45;;;6.97;;
44000;SDS011;29660;42.892;24.710;2023-05-14T05:02:16;13.13;;;9.50;;
44000;SDS011;29660;42.892;24.710;2023-05-14T05:07:38;7.82;;;6.40;;
44000;SDS011;29660;42.892;24.710;2023-05-14T05:13:00;12.27;;;7.25;;
44000;SDS011;29660;42.892;24.710;2023-05-14T05:18:23;9.52;;;6.47;;
44000;SDS011;29660;42.892;24.710;2023-05-14T05:23:45;11.43;;;7.03;;
44000;SDS011;29660;42.892;24.710;2023-05-14T05:29:07;15.20;;;6.70;;
44000;SDS011;29660;42.892;24.710;2023-05-14T05:34:29;12.00;;;7.10;;
44000;SDS011;29660;42.892;24.710;2023-05-14T05:39:52;26.35;;;18.65;;
44000;SDS011;29660;42.892;24.710;2023-05-14T05:45:14;16.13;;;9.20;;
44000;SDS011;29660;42.892;24.710;2023-05-14T05:50:36;15.93;;;10.60;;
44000;SDS011;29660;42.892;24.710;2023-05-14T05:55:58;11.88;;;8.30;;
44000;SDS011;29660;42.892;24.710;2023-05-14T06:01:20;11.40;;;9.02;;
44000;SDS011;29660;42.892;24.710;2023-05-14T06:06:43;8.95;;;6.53;;
44000;SDS011;29660;42.892;24.710;2023-05-14T06:12:05;12.20;;;8.15;;
44000;SDS011;29660;42.892;24.710;2023-05-14T06:17:27;21.48;;;14.70;;
44000;SDS011;29660;42.892;24.710;2023-05-14T06:22:50;23.50;;;16.20;;
44000;SDS011;29660;42.892;24.710;2023-05-14T06:28:12;13.75;;;8.82;;
44000;SDS011;29660;42.892;24.710;2023-05-14T06:33:34;10.25;;;5.88;;
44000;SDS011;29660;42.892;24.710;2023-05-14T06:38:56;16.70;;;9.20;;
44000;SDS011;29660;42.892;24.710;2023-05-14T06:44:18;12.57;;;8.93;;
44000;SDS011;29660;42.892;24.710;2023-05-14T06:49:40;13.55;;;7.80;;
44000;SDS011;29660;42.892;24.710;2023-05-14T06:55:03;9.85;;;5.45;;
44000;SDS011;29660;42.892;24.710;2023-05-14T07:00:31;11.93;;;7.00;;
44000;SDS011;29660;42.892;24.710;2023-05-14T07:05:54;12.60;;;7.35;;
44000;SDS011;29660;42.892;24.710;2023-05-14T07:11:16;9.45;;;6.53;;
44000;SDS011;29660;42.892;24.710;2023-05-14T07:16:38;11.57;;;7.15;;
44000;SDS011;29660;42.892;24.710;2023-05-14T07:22:01;10.43;;;7.93;;
44000;SDS011;29660;42.892;24.710;2023-05-14T07:27:23;19.40;;;12.52;;
44000;SDS011;29660;42.892;24.710;2023-05-14T07:32:45;22.17;;;12.70;;
44000;SDS011;29660;42.892;24.710;2023-05-14T07:38:07;15.98;;;11.25;;
44000;SDS011;29660;42.892;24.710;2023-05-14T07:43:29;12.23;;;9.02;;
44000;SDS011;29660;42.892;24.710;2023-05-14T07:48:51;21.73;;;13.98;;
44000;SDS011;29660;42.892;24.710;2023-05-14T07:54:13;16.55;;;11.65;;
44000;SDS011;29660;42.892;24.710;2023-05-14T07:59:36;8.27;;;6.75;;
44000;SDS011;29660;42.892;24.710;2023-05-14T08:04:58;6.82;;;4.30;;
44000;SDS011;29660;42.892;24.710;2023-05-14T08:10:20;4.97;;;3.50;;
44000;SDS011;29660;42.892;24.710;2023-05-14T08:15:42;14.82;;;9.38;;
44000;SDS011;29660;42.892;24.710;2023-05-14T08:21:04;8.45;;;5.65;;
44000;SDS011;29660;42.892;24.710;2023-05-14T08:26:27;5.22;;;4.65;;
44000;SDS011;29660;42.892;24.710;2023-05-14T08:31:49;6.40;;;4.03;;
44000;SDS011;29660;42.892;24.710;2023-05-14T08:37:11;8.40;;;4.68;;
44000;SDS011;29660;42.892;24.710;2023-05-14T08:42:33;6.47;;;4.55;;
44000;SDS011;29660;42.892;24.710;2023-05-14T08:47:59;7.68;;;5.20;;
44000;SDS011;29660;42.892;24.710;2023-05-14T08:53:25;7.95;;;6.22;;
44000;SDS011;29660;42.892;24.710;2023-05-14T08:58:48;13.43;;;7.00;;
44000;SDS011;29660;42.892;24.710;2023-05-14T09:04:10;9.63;;;7.40;;
44000;SDS011;29660;42.892;24.710;2023-05-14T09:09:33;9.90;;;6.65;;
44000;SDS011;29660;42.892;24.710;2023-05-14T09:14:56;8.63;;;5.80;;
44000;SDS011;29660;42.892;24.710;2023-05-14T09:20:19;9.82;;;6.47;;
44000;SDS011;29660;42.892;24.710;2023-05-14T09:25:42;9.07;;;6.22;;
44000;SDS011;29660;42.892;24.710;2023-05-14T09:31:04;6.30;;;5.32;;
44000;SDS011;29660;42.892;24.710;2023-05-14T09:36:27;5.72;;;5.10;;
44000;SDS011;29660;42.892;24.710;2023-05-14T09:41:49;6.93;;;5.70;;
44000;SDS011;29660;42.892;24.710;2023-05-14T09:47:15;5.50;;;4.78;;
44000;SDS011;29660;42.892;24.710;2023-05-14T09:52:37;8.13;;;6.22;;
44000;SDS011;29660;42.892;24.710;2023-05-14T09:58:00;7.85;;;6.40;;
44000;SDS011;29660;42.892;24.710;2023-05-14T10:03:23;5.30;;;4.22;;
44000;SDS011;29660;42.892;24.710;2023-05-14T10:08:47;8.38;;;5.32;;
44000;SDS011;29660;42.892;24.710;2023-05-14T10:14:15;6.65;;;5.40;;
44000;SDS011;29660;42.892;24.710;2023-05-14T10:19:49;12.88;;;6.93;;
44000;SDS011;29660;42.892;24.710;2023-05-14T10:25:13;6.55;;;5.03;;
44000;SDS011;29660;42.892;24.710;2023-05-14T10:30:42;12.35;;;8.93;;
44000;SDS011;29660;42.892;24.710;2023-05-14T10:36:05;11.43;;;9.18;;
44000;SDS011;29660;42.892;24.710;2023-05-14T10:41:28;9.68;;;8.45;;
44000;SDS011;29660;42.892;24.710;2023-05-14T10:46:50;10.85;;;9.73;;
44000;SDS011;29660;42.892;24.710;2023-05-14T10:52:15;12.60;;;11.07;;
44000;SDS011;29660;42.892;24.710;2023-05-14T10:57:40;8.65;;;7.35;;
44000;SDS011;29660;42.892;24.710;2023-05-14T11:03:04;55.95;;;50.05;;
44000;SDS011;29660;42.892;24.710;2023-05-14T11:08:27;24.83;;;17.80;;
44000;SDS011;29660;42.892;24.710;2023-05-14T11:13:52;35.95;;;28.33;;
44000;SDS011;29660;42.892;24.710;2023-05-14T11:19:14;5.30;;;4.78;;
44000;SDS011;29660;42.892;24.710;2023-05-14T11:24:38;40.85;;;33.40;;
44000;SDS011;29660;42.892;24.710;2023-05-14T11:30:02;5.40;;;4.82;;
44000;SDS011;29660;42.892;24.710;2023-05-14T11:35:24;6.50;;;5.85;;
44000;SDS011;29660;42.892;24.710;2023-05-14T11:40:57;4.97;;;4.10;;
44000;SDS011;29660;42.892;24.710;2023-05-14T11:46:20;9.68;;;6.88;;
44000;SDS011;29660;42.892;24.710;2023-05-14T11:51:43;5.13;;;4.13;;
44000;SDS011;29660;42.892;24.710;2023-05-14T11:57:09;5.78;;;3.03;;
44000;SDS011;29660;42.892;24.710;2023-05-14T12:02:33;7.63;;;4.00;;
44000;SDS011;29660;42.892;24.710;2023-05-14T12:07:55;4.30;;;3.90;;
44000;SDS011;29660;42.892;24.710;2023-05-14T12:13:17;3.70;;;3.03;;
44000;SDS011;29660;42.892;24.710;2023-05-14T12:18:40;3.63;;;2.40;;
44000;SDS011;29660;42.892;24.710;2023-05-14T12:24:03;3.97;;;2.80;;
44000;SDS011;29660;42.892;24.710;2023-05-14T12:29:27;5.75;;;4.28;;
44000;SDS011;29660;42.892;24.710;2023-05-14T12:34:49;4.22;;;3.20;;
44000;SDS011;29660;42.892;24.710;2023-05-14T12:40:11;3.95;;;3.50;;
44000;SDS011;29660;42.892;24.710;2023-05-14T12:45:33;8.23;;;5.25;;
44000;SDS011;29660;42.892;24.710;2023-05-14T12:50:55;9.30;;;5.70;;
44000;SDS011;29660;42.892;24.710;2023-05-14T12:56:18;5.35;;;3.47;;
44000;SDS011;29660;42.892;24.710;2023-05-14T13:01:41;3.97;;;2.80;;
44000;SDS011;29660;42.892;24.710;2023-05-14T13:07:03;5.63;;;4.97;;
44000;SDS011;29660;42.892;24.710;2023-05-14T13:12:25;4.82;;;3.15;;
44000;SDS011;29660;42.892;24.710;2023-05-14T13:17:47;4.88;;;4.20;;
44000;SDS011;29660;42.892;24.710;2023-05-14T13:23:09;10.60;;;9.52;;
44000;SDS011;29660;42.892;24.710;2023-05-14T13:28:32;6.60;;;6.00;;
44000;SDS011;29660;42.892;24.710;2023-05-14T13:33:54;9.82;;;8.43;;
44000;SDS011;29660;42.892;24.710;2023-05-14T13:39:16;6.43;;;5.82;;
44000;SDS011;29660;42.892;24.710;2023-05-14T13:44:38;8.95;;;6.38;;
44000;SDS011;29660;42.892;24.710;2023-05-14T13:50:00;11.93;;;8.00;;
44000;SDS011;29660;42.892;24.710;2023-05-14T13:55:23;13.65;;;12.25;;
44000;SDS011;29660;42.892;24.710;2023-05-14T14:00:45;41.88;;;37.60;;
44000;SDS011;29660;42.892;24.710;2023-05-14T14:06:07;26.35;;;23.10;;
44000;SDS011;29660;42.892;24.710;2023-05-14T14:11:29;23.67;;;18.05;;
44000;SDS011;29660;42.892;24.710;2023-05-14T14:16:52;19.90;;;16.40;;
44000;SDS011;29660;42.892;24.710;2023-05-14T14:22:14;30.90;;;27.58;;
44000;SDS011;29660;42.892;24.710;2023-05-14T14:27:38;17.63;;;13.50;;
44000;SDS011;29660;42.892;24.710;2023-05-14T14:33:01;12.60;;;10.90;;
44000;SDS011;29660;42.892;24.710;2023-05-14T14:38:23;13.43;;;9.15;;
44000;SDS011;29660;42.892;24.710;2023-05-14T14:43:46;8.02;;;6.57;;
44000;SDS011;29660;42.892;24.710;2023-05-14T14:49:08;11.23;;;9.13;;
44000;SDS011;29660;42.892;24.710;2023-05-14T14:54:30;14.35;;;11.25;;
44000;SDS011;29660;42.892;24.710;2023-05-14T14:59:52;13.75;;;10.63;;
44000;SDS011;29660;42.892;24.710;2023-05-14T15:05:14;12.80;;;9.40;;
44000;SDS011;29660;42.892;24.710;2023-05-14T15:10:36;14.38;;;9.13;;
44000;SDS011;29660;42.892;24.710;2023-05-14T15:15:59;13.43;;;10.75;;
44000;SDS011;29660;42.892;24.710;2023-05-14T15:21:21;12.63;;;11.30;;
44000;SDS011;29660;42.892;24.710;2023-05-14T15:26:43;20.80;;;15.43;;
44000;SDS011;29660;42.892;24.710;2023-05-14T15:32:05;38.45;;;29.27;;
44000;SDS011;29660;42.892;24.710;2023-05-14T15:37:30;42.15;;;34.20;;
44000;SDS011;29660;42.892;24.710;2023-05-14T15:43:00;48.95;;;38.30;;
44000;SDS011;29660;42.892;24.710;2023-05-14T15:48:22;38.00;;;31.83;;
44000;SDS011;29660;42.892;24.710;2023-05-14T15:53:45;25.92;;;22.48;;
44000;SDS011;29660;42.892;24.710;2023-05-14T15:59:07;26.05;;;19.73;;
44000;SDS011;29660;42.892;24.710;2023-05-14T16:04:29;19.98;;;16.55;;
44000;SDS011;29660;42.892;24.710;2023-05-14T16:09:51;25.75;;;19.10;;
44000;SDS011;29660;42.892;24.710;2023-05-14T16:15:13;68.97;;;49.20;;
44000;SDS011;29660;42.892;24.710;2023-05-14T16:20:35;29.08;;;23.30;;
44000;SDS011;29660;42.892;24.710;2023-05-14T16:25:58;30.70;;;24.23;;
44000;SDS011;29660;42.892;24.710;2023-05-14T16:31:21;28.55;;;23.73;;
44000;SDS011;29660;42.892;24.710;2023-05-14T16:36:44;34.75;;;27.35;;
44000;SDS011;29660;42.892;24.710;2023-05-14T16:42:06;28.30;;;21.90;;
44000;SDS011;29660;42.892;24.710;2023-05-14T16:47:28;26.73;;;23.92;;
44000;SDS011;29660;42.892;24.710;2023-05-14T16:52:51;26.15;;;20.73;;
44000;SDS011;29660;42.892;24.710;2023-05-14T16:58:13;25.73;;;21.13;;
44000;SDS011;29660;42.892;24.710;2023-05-14T17:03:35;30.10;;;24.95;;
44000;SDS011;29660;42.892;24.710;2023-05-14T17:08:57;30.33;;;24.40;;
44000;SDS011;29660;42.892;24.710;2023-05-14T17:14:19;30.70;;;24.75;;
44000;SDS011;29660;42.892;24.710;2023-05-14T17:19:42;33.05;;;27.27;;
44000;SDS011;29660;42.892;24.710;2023-05-14T17:25:04;23.58;;;19.90;;
44000;SDS011;29660;42.892;24.710;2023-05-14T17:30:27;20.52;;;16.90;;
44000;SDS011;29660;42.892;24.710;2023-05-14T17:35:49;36.53;;;29.23;;
44000;SDS011;29660;42.892;24.710;2023-05-14T17:41:12;55.40;;;44.97;;
44000;SDS011;29660;42.892;24.710;2023-05-14T17:46:34;42.85;;;34.90;;
44000;SDS011;29660;42.892;24.710;2023-05-14T17:51:57;31.27;;;21.25;;
44000;SDS011;29660;42.892;24.710;2023-05-14T17:57:19;24.33;;;20.63;;
44000;SDS011;29660;42.892;24.710;2023-05-14T18:02:42;60.67;;;47.42;;
44000;SDS011;29660;42.892;24.710;2023-05-14T18:08:04;55.97;;;45.50;;
44000;SDS011;29660;42.892;24.710;2023-05-14T18:13:26;70.18;;;54.33;;
44000;SDS011;29660;42.892;24.710;2023-05-14T18:18:48;36.05;;;26.48;;
44000;SDS011;29660;42.892;24.710;2023-05-14T18:24:11;25.92;;;22.38;;
44000;SDS011;29660;42.892;24.710;2023-05-14T18:29:33;34.58;;;27.20;;
44000;SDS011;29660;42.892;24.710;2023-05-14T18:34:56;38.40;;;33.70;;
44000;SDS011;29660;42.892;24.710;2023-05-14T18:40:18;40.13;;;32.33;;
44000;SDS011;29660;42.892;24.710;2023-05-14T18:45:41;39.85;;;32.30;;
44000;SDS011;29660;42.892;24.710;2023-05-14T18:51:05;42.88;;;33.60;;
44000;SDS011;29660;42.892;24.710;2023-05-14T18:56:27;33.60;;;22.48;;
44000;SDS011;29660;42.892;24.710;2023-05-14T19:01:49;23.58;;;19.65;;
44000;SDS011;29660;42.892;24.710;2023-05-14T19:07:12;19.92;;;14.48;;
44000;SDS011;29660;42.892;24.710;2023-05-14T19:12:35;22.05;;;15.40;;
44000;SDS011;29660;42.892;24.710;2023-05-14T19:17:57;19.95;;;16.67;;
44000;SDS011;29660;42.892;24.710;2023-05-14T19:23:20;33.58;;;26.67;;
44000;SDS011;29660;42.892;24.710;2023-05-14T19:28:42;41.35;;;32.58;;
44000;SDS011;29660;42.892;24.710;2023-05-14T19:34:04;19.98;;;17.42;;
44000;SDS011;29660;42.892;24.710;2023-05-14T19:39:27;16.90;;;14.65;;
44000;SDS011;29660;42.892;24.710;2023-05-14T19:44:49;27.15;;;20.85;;
44000;SDS011;29660;42.892;24.710;2023-05-14T19:50:11;79.95;;;65.25;;
44000;SDS011;29660;42.892;24.710;2023-05-14T19:55:33;32.80;;;27.00;;
44000;SDS011;29660;42.892;24.710;2023-05-14T20:00:55;24.13;;;20.85;;
44000;SDS011;29660;42.892;24.710;2023-05-14T20:06:19;24.05;;;21.55;;
44000;SDS011;29660;42.892;24.710;2023-05-14T20:11:41;29.35;;;22.77;;
44000;SDS011;29660;42.892;24.710;2023-05-14T20:17:03;88.57;;;60.15;;
44000;SDS011;29660;42.892;24.710;2023-05-14T20:22:26;35.28;;;26.65;;
44000;SDS011;29660;42.892;24.710;2023-05-14T20:27:48;33.40;;;26.23;;
44000;SDS011;29660;42.892;24.710;2023-05-14T20:33:10;33.22;;;26.75;;
44000;SDS011;29660;42.892;24.710;2023-05-14T20:38:34;29.70;;;23.58;;
44000;SDS011;29660;42.892;24.710;2023-05-14T20:43:56;30.08;;;21.83;;
44000;SDS011;29660;42.892;24.710;2023-05-14T20:49:18;46.05;;;30.80;;
44000;SDS011;29660;42.892;24.710;2023-05-14T20:54:40;23.73;;;18.30;;
44000;SDS011;29660;42.892;24.710;2023-05-14T21:00:03;18.63;;;14.00;;
44000;SDS011;29660;42.892;24.710;2023-05-14T21:05:29;18.95;;;11.88;;
44000;SDS011;29660;42.892;24.710;2023-05-14T21:10:51;16.55;;;11.05;;
44000;SDS011;29660;42.892;24.710;2023-05-14T21:16:13;14.82;;;12.25;;
44000;SDS011;29660;42.892;24.710;2023-05-14T21:21:35;23.95;;;12.82;;
44000;SDS011;29660;42.892;24.710;2023-05-14T21:26:57;16.42;;;14.73;;
44000;SDS011;29660;42.892;24.710;2023-05-14T21:32:20;28.20;;;20.63;;
44000;SDS011;29660;42.892;24.710;2023-05-14T21:37:42;23.38;;;17.55;;
44000;SDS011;29660;42.892;24.710;2023-05-14T21:43:05;26.27;;;18.23;;
44000;SDS011;29660;42.892;24.710;2023-05-14T21:48:27;23.02;;;18.42;;
44000;SDS011;29660;42.892;24.710;2023-05-14T21:53:49;22.98;;;19.65;;
44000;SDS011;29660;42.892;24.710;2023-05-14T21:59:11;28.90;;;21.27;;
44000;SDS011;29660;42.892;24.710;2023-05-14T22:04:33;27.80;;;22.40;;
44000;SDS011;29660;42.892;24.710;2023-05-14T22:09:56;25.38;;;20.38;;
44000;SDS011;29660;42.892;24.710;2023-05-14T22:15:18;25.88;;;20.33;;
44000;SDS011;29660;42.892;24.710;2023-05-14T22:20:41;26.83;;;20.45;;
44000;SDS011;29660;42.892;24.710;2023-05-14T22:26:03;22.75;;;15.98;;
44000;SDS011;29660;42.892;24.710;2023-05-14T22:31:25;22.60;;;18.55;;
44000;SDS011;29660;42.892;24.710;2023-05-14T22:36:48;20.30;;;17.17;;
44000;SDS011;29660;42.892;24.710;2023-05-14T22:42:10;18.15;;;16.25;;
44000;SDS011;29660;42.892;24.710;2023-05-14T22:47:32;21.50;;;16.20;;
44000;SDS011;29660;42.892;24.710;2023-05-14T22:52:54;19.17;;;11.68;;
44000;SDS011;29660;42.892;24.710;2023-05-14T22:58:16;16.58;;;10.68;;
44000;SDS011;29660;42.892;24.710;2023-05-14T23:03:38;16.83;;;12.00;;
44000;SDS011;29660;42.892;24.710;2023-05-14T23:09:00;16.42;;;12.50;;
44000;SDS011;29660;42.892;24.710;2023-05-14T23:14:23;18.50;;;14.80;;
44000;SDS011;29660;42.892;24.710;2023-05-14T23:19:45;17.40;;;11.98;;
44000;SDS011;29660;42.892;24.710;2023-05-14T23:25:07;18.52;;;13.05;;
44000;SDS011;29660;42.892;24.710;2023-05-14T23:30:30;18.67;;;14.57;;
44000;SDS011;29660;42.892;24.710;2023-05-14T23:35:52;17.83;;;15.13;;
44000;SDS011;29660;42.892;24.710;2023-05-14T23:41:14;19.77;;;16.45;;
44000;SDS011;29660;42.892;24.710;2023-05-14T23:46:36;21.15;;;17.08;;
44000;SDS011;29660;42.892;24.710;2023-05-14T23:51:58;16.48;;;12.65;;
44000;SDS011;29660;42.892;24.710;2023-05-14T23:57:20;16.80;;;13.52;;
